Time;durP1;ratioP1;P1;durP2;ratioP2;P2;SDS_P1;SDS_P2;PMS_P1;PMS_P2;Temp;Humidity;BMP_temperature;BMP_pressure;BME280_temperature;BME280_humidity;BME280_pressure;Samples;Min_cycle;Max_cycle;Signal;HPM_P1;HPM_P2
2022/04/10 00:02:00;;;;;;;;;24.25;23.50;;;;;10.17;52.48;101688.84;5048545;28;45373;-64
2022/04/10 00:04:26;;;;;;;;;30.00;28.00;;;;;10.15;52.80;101679.97;5058985;28;45696;-64
2022/04/10 00:06:51;;;;;;;;;28.00;27.00;;;;;10.13;52.33;101683.59;5061067;28;45510;-63
2022/04/10 00:09:16;;;;;;;;;33.50;32.75;;;;;10.14;52.62;101683.56;5061067;28;45249;-64
2022/04/10 00:11:42;;;;;;;;;33.50;30.50;;;;;10.13;52.33;101684.44;5047044;28;46303;-64
2022/04/10 00:14:07;;;;;;;;;30.50;26.75;;;;;10.06;53.19;101666.78;5056365;28;45327;-64
2022/04/10 00:16:33;;;;;;;;;25.75;22.50;;;;;10.08;53.06;101674.78;5058515;28;45427;-64
2022/04/10 00:19:04;;;;;;;;;28.50;26.50;;;;;10.06;53.13;101672.13;5047904;28;45330;-63
2022/04/10 00:21:33;;;;;;;;;28.00;26.50;;;;;10.06;53.22;101671.25;5058765;28;46154;-63
2022/04/10 00:23:59;;;;;;;;;30.50;30.50;;;;;10.03;53.36;101666.84;5055771;28;45881;-64
2022/04/10 00:26:25;;;;;;;;;19.00;17.50;;;;;9.99;53.04;101668.66;5048427;28;45491;-63
2022/04/10 00:28:53;;;;;;;;;32.25;30.25;;;;;9.98;53.47;101664.22;5061251;28;45494;-64
2022/04/10 00:31:18;;;;;;;;;29.00;27.75;;;;;9.92;53.27;101660.78;5060442;28;46189;-63
2022/04/10 00:33:44;;;;;;;;;32.25;28.00;;;;;9.90;52.77;101660.78;5059059;28;45306;-64
2022/04/10 00:36:10;;;;;;;;;34.50;30.50;;;;;9.94;53.09;101662.53;5055674;28;45335;-63
2022/04/10 00:38:35;;;;;;;;;28.00;24.50;;;;;9.89;53.28;101663.47;5054783;28;45450;-64
2022/04/10 00:41:01;;;;;;;;;30.25;29.75;;;;;9.87;53.33;101662.63;5059816;28;45363;-63
2022/04/10 00:43:32;;;;;;;;;29.50;26.25;;;;;9.87;53.69;101660.84;5046331;28;45754;-63
2022/04/10 00:46:00;;;;;;;;;27.50;27.00;;;;;9.87;53.79;101659.97;5048551;28;45419;-64
2022/04/10 00:48:27;;;;;;;;;29.75;29.25;;;;;9.85;53.52;101662.66;5067414;28;45489;-64
2022/04/10 00:53:39;;;;;;;;;30.75;29.50;;;;;9.78;53.89;101655.66;5060240;28;45405;-63
2022/04/10 00:56:05;;;;;;;;;28.00;25.00;;;;;9.78;54.01;101659.19;5046117;28;45429;-64
2022/04/10 00:58:31;;;;;;;;;29.00;27.75;;;;;9.73;53.38;101662.84;5056990;28;45146;-63
2022/04/10 01:00:57;;;;;;;;;28.00;27.25;;;;;9.69;53.75;101664.66;5059419;28;45421;-63
2022/04/10 01:03:22;;;;;;;;;31.75;29.50;;;;;9.73;54.01;101666.38;5058426;28;45609;-63
2022/04/10 01:05:47;;;;;;;;;25.75;24.75;;;;;9.69;53.86;101663.75;5057198;28;45499;-63
2022/04/10 01:08:14;;;;;;;;;28.50;28.00;;;;;9.72;53.41;101679.72;5059549;28;45295;-63
2022/04/10 01:10:42;;;;;;;;;29.00;24.50;;;;;9.71;53.76;101667.31;5048912;28;45643;-63
2022/04/10 01:13:08;;;;;;;;;27.00;26.00;;;;;9.70;54.03;101678.88;5059336;28;45698;-63
2022/04/10 01:15:34;;;;;;;;;29.75;27.00;;;;;9.68;53.93;101668.22;5052804;28;45596;-64
2022/04/10 01:17:59;;;;;;;;;28.75;26.75;;;;;9.64;53.46;101664.72;5052562;28;45363;-63
2022/04/10 01:20:26;;;;;;;;;24.50;24.50;;;;;9.64;53.53;101663.84;5059827;28;46248;-63
2022/04/10 01:22:52;;;;;;;;;32.25;28.00;;;;;9.62;53.74;101668.28;5060274;28;45822;-64
2022/04/10 01:25:17;;;;;;;;;30.75;26.75;;;;;9.58;53.72;101666.59;5051052;28;45493;-63
2022/04/10 01:27:42;;;;;;;;;27.25;24.00;;;;;9.59;54.05;101668.38;5058432;28;45513;-63
2022/04/10 01:30:10;;;;;;;;;30.00;27.75;;;;;9.56;53.81;101671.94;5060253;28;46513;-63
2022/04/10 01:32:36;;;;;;;;;29.00;24.75;;;;;9.53;54.26;101663.09;5059920;28;45665;-64
2022/04/10 01:35:03;;;;;;;;;33.25;31.50;;;;;9.52;54.04;101664.91;5050215;28;45394;-63
2022/04/10 01:37:31;;;;;;;;;32.50;28.75;;;;;9.51;54.41;101662.25;5058334;28;45534;-63
2022/04/10 01:39:56;;;;;;;;;26.25;24.25;;;;;9.44;54.11;101664.13;5059827;28;45458;-63
2022/04/10 01:42:22;;;;;;;;;28.25;27.25;;;;;9.43;54.54;101668.53;5059941;28;45232;-63
2022/04/10 01:44:47;;;;;;;;;29.75;27.00;;;;;9.41;53.87;101665.03;5059264;28;45247;-63
2022/04/10 01:47:12;;;;;;;;;29.50;26.75;;;;;9.42;54.54;101671.22;5046316;28;45370;-63
2022/04/10 01:49:38;;;;;;;;;29.50;29.00;;;;;9.38;54.67;101662.41;5050369;28;46301;-64
2022/04/10 01:52:04;;;;;;;;;30.25;27.75;;;;;9.38;54.33;101656.19;5058752;28;45361;-63
2022/04/10 01:54:29;;;;;;;;;33.00;31.00;;;;;9.38;54.15;101662.41;5053721;28;45731;-63
2022/04/10 01:56:55;;;;;;;;;29.00;27.75;;;;;9.34;54.49;101643.78;5056570;28;45383;-63
2022/04/10 01:59:21;;;;;;;;;31.50;30.50;;;;;9.33;54.59;101647.38;5052493;28;45289;-63
2022/04/10 02:01:46;;;;;;;;;35.00;30.00;;;;;9.33;54.75;101652.72;5058752;28;47165;-63
2022/04/10 02:04:12;;;;;;;;;36.75;30.25;;;;;9.28;54.64;101650.09;5058739;28;45482;-63
2022/04/10 02:06:37;;;;;;;;;31.00;31.00;;;;;9.25;54.60;101642.13;5056664;28;45643;-64
2022/04/10 02:09:06;;;;;;;;;34.50;32.00;;;;;9.28;54.64;101653.63;5058313;28;45414;-63
2022/04/10 02:11:32;;;;;;;;;35.00;30.75;;;;;9.27;54.67;101650.97;5058833;28;46924;-63
2022/04/10 02:13:57;;;;;;;;;32.25;29.75;;;;;9.24;54.45;101653.72;5059934;28;45710;-63
2022/04/10 02:16:22;;;;;;;;;26.25;24.00;;;;;9.20;54.26;101644.84;5058312;28;45493;-63
2022/04/10 02:18:48;;;;;;;;;30.00;29.50;;;;;9.19;54.55;101648.44;5059551;28;46025;-63
2022/04/10 02:21:14;;;;;;;;;29.75;28.75;;;;;9.18;54.69;101641.31;5052370;28;45481;-63
2022/04/10 02:23:39;;;;;;;;;24.50;23.50;;;;;9.18;54.25;101651.97;5058767;28;45589;-63
2022/04/10 02:26:05;;;;;;;;;34.00;26.50;;;;;9.19;54.79;101660.88;5058402;28;45242;-63
2022/04/10 02:28:30;;;;;;;;;29.50;27.25;;;;;9.18;54.42;101653.78;5049730;28;46204;-63
2022/04/10 02:30:56;;;;;;;;;27.75;24.75;;;;;9.18;54.20;101653.78;5058618;28;45649;-64
2022/04/10 02:33:21;;;;;;;;;24.50;24.25;;;;;9.17;54.31;101662.66;5059236;28;45373;-63
2022/04/10 02:35:47;;;;;;;;;27.50;24.00;;;;;9.15;54.24;101657.34;5056888;28;45386;-63
2022/04/10 02:38:13;;;;;;;;;29.50;27.25;;;;;9.13;54.27;101660.94;5057715;28;45257;-64
2022/04/10 02:40:38;;;;;;;;;24.50;24.50;;;;;9.09;54.12;101657.44;5057072;28;45476;-63
2022/04/10 02:43:04;;;;;;;;;26.25;21.50;;;;;9.09;54.47;101660.97;5056204;28;45391;-63
2022/04/10 02:45:29;;;;;;;;;27.25;27.25;;;;;9.06;54.34;101661.00;5057164;28;45537;-63
2022/04/10 02:47:54;;;;;;;;;24.00;22.75;;;;;9.06;54.47;101665.47;5041691;28;45388;-63
2022/04/10 02:50:20;;;;;;;;;24.75;21.25;;;;;9.01;54.39;101670.81;5055813;28;45417;-63
2022/04/10 02:52:45;;;;;;;;;23.25;22.00;;;;;8.97;54.16;101662.88;5058658;28;45522;-63
2022/04/10 02:55:11;;;;;;;;;27.50;27.25;;;;;8.98;54.74;101662.00;5054344;28;45470;-63
2022/04/10 02:57:37;;;;;;;;;23.50;21.50;;;;;8.95;54.78;101657.56;5058120;28;46320;-63
2022/04/10 03:00:07;;;;;;;;;28.25;25.50;;;;;8.96;54.88;101662.00;5049257;28;45517;-63
2022/04/10 03:02:33;;;;;;;;;24.25;21.75;;;;;8.90;54.91;101654.06;5058220;28;45321;-63
2022/04/10 03:04:59;;;;;;;;;24.25;22.25;;;;;8.87;54.65;101665.66;5052313;28;45324;-63
2022/04/10 03:07:24;;;;;;;;;28.00;26.50;;;;;8.88;54.63;101669.19;5049880;28;46222;-63
2022/04/10 03:09:49;;;;;;;;;28.00;26.75;;;;;8.86;54.62;101663.88;5052616;28;45509;-63
2022/04/10 03:12:15;;;;;;;;;25.50;24.75;;;;;8.86;54.73;101665.66;5055141;28;45523;-63
2022/04/10 03:14:41;;;;;;;;;28.75;22.00;;;;;8.81;54.79;101663.06;5055050;28;45216;-63
2022/04/10 03:17:06;;;;;;;;;26.50;23.75;;;;;8.80;55.03;101663.06;5049514;28;46065;-63
2022/04/10 03:19:31;;;;;;;;;28.50;25.00;;;;;8.82;55.00;101674.56;5058913;28;45215;-63
2022/04/10 03:21:57;;;;;;;;;30.00;29.00;;;;;8.80;55.19;101671.91;5060469;28;45205;-63
2022/04/10 03:24:22;;;;;;;;;26.75;25.25;;;;;8.77;55.10;101668.41;5062120;28;45256;-63
2022/04/10 03:26:47;;;;;;;;;28.75;28.50;;;;;8.79;54.98;101674.63;5061795;28;46052;-63
2022/04/10 03:29:13;;;;;;;;;29.75;26.50;;;;;8.78;54.94;101678.19;5062131;28;45402;-63
2022/04/10 03:31:39;;;;;;;;;25.00;22.00;;;;;8.76;55.09;101678.19;5062472;28;45321;-63
2022/04/10 03:34:04;;;;;;;;;31.25;27.00;;;;;8.76;54.96;101679.97;5055007;28;45530;-63
2022/04/10 03:36:30;;;;;;;;;27.50;24.00;;;;;8.73;54.74;101682.66;5061898;28;46035;-63
2022/04/10 03:38:55;;;;;;;;;33.25;28.00;;;;;8.69;55.12;101682.69;5061746;28;45342;-63
2022/04/10 03:41:20;;;;;;;;;30.75;28.25;;;;;8.69;55.07;101684.47;5061447;28;45302;-63
2022/04/10 03:43:46;;;;;;;;;29.00;26.50;;;;;8.66;54.93;101684.50;5052281;28;45412;-63
2022/04/10 03:46:11;;;;;;;;;29.25;26.00;;;;;8.58;54.98;101678.38;5052238;28;46077;-63
2022/04/10 03:48:36;;;;;;;;;24.25;24.25;;;;;8.57;54.79;101682.81;5059278;28;45462;-63
2022/04/10 03:51:02;;;;;;;;;24.25;24.00;;;;;8.58;54.64;101687.22;5061529;28;45555;-63
2022/04/10 03:53:27;;;;;;;;;25.50;20.75;;;;;8.55;54.74;101687.25;5061680;28;45307;-63
2022/04/10 03:55:53;;;;;;;;;23.25;22.25;;;;;8.48;55.21;101674.91;5061687;28;46422;-63
2022/04/10 03:58:18;;;;;;;;;25.50;21.50;;;;;8.46;55.12;101682.03;5065204;28;45560;-63
2022/04/10 04:00:44;;;;;;;;;26.75;22.50;;;;;8.43;54.95;101680.25;5080274;27;45541;-63
2022/04/10 04:03:10;;;;;;;;;25.75;23.00;;;;;8.40;54.89;101669.59;5044871;27;45255;-63
2022/04/10 04:05:35;;;;;;;;;25.50;25.50;;;;;8.40;55.15;101680.25;5049316;28;45368;-63
2022/04/10 04:08:01;;;;;;;;;22.50;21.00;;;;;8.34;55.15;101677.66;5057898;28;45170;-63
2022/04/10 04:10:26;;;;;;;;;21.75;21.75;;;;;8.35;54.94;101677.66;5060717;28;45387;-63
2022/04/10 04:12:51;;;;;;;;;23.75;21.00;;;;;8.30;55.35;101671.47;5060672;28;45512;-63
2022/04/10 04:15:17;;;;;;;;;27.75;26.00;;;;;8.32;55.25;101671.47;5052632;28;45377;-63
2022/04/10 04:17:42;;;;;;;;;25.50;23.00;;;;;8.28;54.97;101667.06;5058228;28;45401;-63
2022/04/10 04:20:09;;;;;;;;;23.75;23.25;;;;;8.28;54.80;101665.25;5072107;27;45526;-63
2022/04/10 04:22:35;;;;;;;;;26.25;24.50;;;;;8.25;55.21;101675.97;5061307;28;45415;-63
2022/04/10 04:25:01;;;;;;;;;22.25;22.00;;;;;8.16;55.20;101662.72;5053260;28;46121;-63
2022/04/10 04:27:26;;;;;;;;;25.00;24.25;;;;;8.19;55.34;101676.00;5056019;28;45556;-63
2022/04/10 04:29:52;;;;;;;;;26.75;24.75;;;;;8.19;55.06;101678.66;5060613;28;45244;-63
2022/04/10 04:32:17;;;;;;;;;25.25;21.25;;;;;8.19;55.34;101680.44;5059375;28;45242;-63
2022/04/10 04:34:42;;;;;;;;;27.25;23.50;;;;;8.17;55.32;101685.78;5053591;28;45332;-63
2022/04/10 04:37:09;;;;;;;;;26.50;24.75;;;;;8.15;55.33;101692.84;5060813;28;45238;-63
2022/04/10 04:39:35;;;;;;;;;20.50;19.50;;;;;8.09;55.35;101677.84;5060239;28;45471;-63
2022/04/10 04:42:00;;;;;;;;;24.00;23.00;;;;;8.13;55.28;101692.00;5057019;28;45240;-63
2022/04/10 04:44:26;;;;;;;;;28.25;24.00;;;;;8.13;55.45;101694.66;5049223;28;45401;-63
2022/04/10 04:46:51;;;;;;;;;21.75;20.50;;;;;8.06;55.42;101690.28;5059779;28;45473;-63
2022/04/10 04:49:16;;;;;;;;;24.75;24.25;;;;;8.09;55.37;101701.78;5060281;28;45272;-63
2022/04/10 04:51:42;;;;;;;;;23.25;23.25;;;;;8.02;55.20;101693.81;5059547;28;45587;-63
2022/04/10 04:54:10;;;;;;;;;27.50;25.25;;;;;8.04;55.12;101710.69;5055599;28;46189;-63
2022/04/10 04:56:35;;;;;;;;;22.75;22.25;;;;;8.01;55.23;101714.22;5059985;28;45368;-63
2022/04/10 04:59:01;;;;;;;;;23.00;19.75;;;;;8.04;55.28;101721.31;5062959;28;45449;-63
2022/04/10 05:01:26;;;;;;;;;20.25;20.25;;;;;8.02;55.13;101716.00;5059964;28;45349;-63
2022/04/10 05:03:52;;;;;;;;;19.75;19.25;;;;;8.00;55.43;101725.75;5064790;28;46129;-63
2022/04/10 05:06:18;;;;;;;;;22.00;20.00;;;;;7.91;55.53;101708.06;5046846;28;45322;-63
2022/04/10 05:08:46;;;;;;;;;23.75;20.50;;;;;7.95;55.23;101715.16;5060707;28;45220;-63
2022/04/10 05:11:12;;;;;;;;;20.50;20.50;;;;;7.94;55.57;101713.38;5058054;28;45374;-63
2022/04/10 05:13:37;;;;;;;;;22.00;19.50;;;;;7.95;55.36;101724.88;5060646;28;45397;-63
2022/04/10 05:16:03;;;;;;;;;22.25;20.00;;;;;7.94;55.01;101726.69;5045717;28;45430;-63
2022/04/10 05:18:28;;;;;;;;;24.00;20.75;;;;;7.93;55.25;101727.56;5048764;28;45241;-63
2022/04/10 05:20:54;;;;;;;;;17.25;13.75;;;;;7.88;55.41;101718.72;5060375;28;45318;-63
2022/04/10 05:23:20;;;;;;;;;19.00;19.00;;;;;7.91;55.23;101723.16;5060276;28;46472;-63
2022/04/10 05:25:46;;;;;;;;;11.25;10.75;;;;;7.87;55.25;101719.63;5060188;28;45260;-63
2022/04/10 05:28:12;;;;;;;;;20.25;19.00;;;;;7.86;55.35;101723.19;5060740;28;45272;-63
2022/04/10 05:30:37;;;;;;;;;20.25;18.75;;;;;7.88;55.14;101736.47;5060232;28;45543;-63
2022/04/10 05:33:03;;;;;;;;;19.50;18.50;;;;;7.88;55.58;101736.47;5058476;28;47332;-63
2022/04/10 05:35:28;;;;;;;;;21.25;20.00;;;;;7.86;55.06;101730.28;5059367;28;45402;-63
2022/04/10 05:37:53;;;;;;;;;23.75;20.00;;;;;7.73;54.99;101717.03;5065749;28;45737;-63
2022/04/10 05:40:19;;;;;;;;;21.75;19.50;;;;;7.83;55.15;101738.25;5064621;27;45575;-63
2022/04/10 05:42:45;;;;;;;;;20.75;18.25;;;;;7.84;55.41;101740.91;5060241;28;45323;-63
2022/04/10 05:45:11;;;;;;;;;21.25;20.00;;;;;7.84;55.49;101745.34;5057869;28;45333;-63
2022/04/10 05:47:38;;;;;;;;;18.75;18.75;;;;;7.79;55.43;101746.25;5060184;28;45433;-63
2022/04/10 05:50:04;;;;;;;;;23.25;21.00;;;;;7.82;55.85;101752.44;5058718;28;45492;-63
2022/04/10 05:52:29;;;;;;;;;18.25;18.25;;;;;7.84;55.46;101758.66;5059928;28;46138;-63
2022/04/10 05:54:59;;;;;;;;;23.75;18.50;;;;;7.83;55.86;101746.25;5053423;28;45326;-63
2022/04/10 05:57:24;;;;;;;;;20.25;18.25;;;;;7.84;55.67;101756.00;5059360;28;45292;-63
2022/04/10 05:59:50;;;;;;;;;22.50;21.50;;;;;7.84;55.78;101754.19;5059117;28;45153;-63
2022/04/10 06:02:15;;;;;;;;;23.75;23.75;;;;;7.83;55.52;101743.56;5058637;28;45212;-62
2022/04/10 06:04:40;;;;;;;;;26.25;25.00;;;;;7.83;55.71;101744.44;5058054;28;45266;-62
2022/04/10 06:07:06;;;;;;;;;22.50;20.25;;;;;7.85;56.07;101752.41;5057690;28;45382;-62
2022/04/10 06:09:31;;;;;;;;;29.75;24.50;;;;;7.86;56.05;101764.84;5062405;28;45398;-62
2022/04/10 06:11:57;;;;;;;;;21.25;20.50;;;;;7.86;55.78;101765.72;5068969;28;46666;-62
2022/04/10 06:14:22;;;;;;;;;25.25;20.25;;;;;7.85;55.61;101760.41;5062090;28;45419;-62
2022/04/10 06:16:48;;;;;;;;;24.75;24.75;;;;;7.87;55.75;101780.78;5068947;28;45769;-62
2022/04/10 06:19:16;;;;;;;;;24.00;23.75;;;;;7.84;56.32;101763.97;5066895;27;45609;-63
2022/04/10 06:21:41;;;;;;;;;23.75;23.75;;;;;7.88;56.09;101768.38;5062516;27;46471;-63
2022/04/10 06:24:07;;;;;;;;;27.00;23.50;;;;;7.88;56.11;101771.91;5055534;28;45421;-63
2022/04/10 06:26:32;;;;;;;;;22.00;19.50;;;;;7.87;56.08;101774.56;5050557;28;45385;-63
2022/04/10 06:28:58;;;;;;;;;26.50;24.25;;;;;7.92;56.42;101778.09;5058483;28;46018;-63
2022/04/10 06:31:23;;;;;;;;;23.75;23.75;;;;;7.90;56.39;101766.56;5052957;28;45367;-63
2022/04/10 06:33:50;;;;;;;;;27.75;26.50;;;;;7.91;56.72;101766.56;5052815;28;45298;-63
2022/04/10 06:36:16;;;;;;;;;28.50;28.50;;;;;7.93;56.01;101763.91;5056151;28;45416;-63
2022/04/10 06:38:41;;;;;;;;;25.50;22.50;;;;;7.90;56.69;101756.84;5047839;28;45355;-63
2022/04/10 06:41:06;;;;;;;;;27.25;22.75;;;;;7.93;56.70;101761.25;5055675;28;46658;-63
2022/04/10 06:43:32;;;;;;;;;24.00;24.00;;;;;7.94;56.80;101760.38;5051661;28;45458;-63
2022/04/10 06:45:57;;;;;;;;;25.25;25.25;;;;;7.98;57.02;101760.34;5042683;28;45362;-62
2022/04/10 06:48:22;;;;;;;;;27.25;26.00;;;;;7.96;57.24;101754.13;5051844;28;45407;-63
2022/04/10 06:50:48;;;;;;;;;29.25;25.75;;;;;8.03;57.07;101768.28;5061112;28;47260;-62
2022/04/10 06:53:13;;;;;;;;;27.75;25.25;;;;;8.04;57.24;101762.06;5050759;28;45527;-63
2022/04/10 06:55:39;;;;;;;;;34.50;30.00;;;;;8.07;57.61;101764.72;5043628;28;45382;-64
2022/04/10 06:58:04;;;;;;;;;34.00;27.50;;;;;8.06;57.41;101762.94;5046800;28;45672;-63
2022/04/10 07:00:30;;;;;;;;;31.25;29.00;;;;;8.11;57.52;101765.59;5069058;28;48428;-64
2022/04/10 07:02:55;;;;;;;;;26.25;25.50;;;;;8.14;57.79;101763.78;5062676;28;45413;-64
2022/04/10 07:05:21;;;;;;;;;31.50;31.50;;;;;8.16;57.48;101766.44;5063007;28;45292;-64
2022/04/10 07:07:46;;;;;;;;;35.25;32.75;;;;;8.19;57.36;101755.78;5057809;28;45339;-63
2022/04/10 07:10:11;;;;;;;;;33.00;31.75;;;;;8.21;57.08;101758.44;5061794;28;45581;-64
2022/04/10 07:12:37;;;;;;;;;32.75;28.25;;;;;8.22;57.45;101757.53;5062235;28;45405;-63
2022/04/10 07:15:03;;;;;;;;;37.25;31.75;;;;;8.23;57.22;101757.53;5057270;28;45563;-63
2022/04/10 07:17:29;;;;;;;;;37.00;34.75;;;;;8.31;57.31;101757.47;5062336;28;45343;-63
2022/04/10 07:19:55;;;;;;;;;34.75;32.50;;;;;8.31;57.09;101753.03;5058019;28;45322;-64
2022/04/10 07:25:05;;;;;;;;;27.00;25.75;;;;;8.42;57.00;101749.41;5046172;28;45482;-64
2022/04/10 07:27:30;;;;;;;;;31.75;28.25;;;;;8.47;56.46;101753.84;5059823;28;45709;-64
2022/04/10 07:29:55;;;;;;;;;30.50;29.75;;;;;8.53;56.86;101755.56;5062316;28;45185;-64
2022/04/10 07:32:21;;;;;;;;;32.00;28.50;;;;;8.60;56.88;101759.94;5049941;28;45302;-64
2022/04/10 07:34:46;;;;;;;;;29.00;27.00;;;;;8.61;56.21;101758.19;5056109;28;45394;-64
2022/04/10 07:37:12;;;;;;;;;19.50;19.50;;;;;8.67;56.00;101763.44;5062202;28;45413;-65
2022/04/10 07:39:37;;;;;;;;;20.75;20.25;;;;;8.75;55.19;101768.72;5058658;28;47360;-64
2022/04/10 07:42:03;;;;;;;;;20.00;16.50;;;;;8.79;55.85;101760.69;5060641;28;45221;-65
2022/04/10 07:44:28;;;;;;;;;22.00;21.00;;;;;8.84;55.16;101766.88;5062078;28;45447;-65
2022/04/10 07:49:38;;;;;;;;;23.50;22.50;;;;;8.97;54.92;101766.75;5057157;28;45563;-64
2022/04/10 07:52:04;;;;;;;;;20.00;20.00;;;;;9.05;55.08;101778.19;5047495;28;45392;-64
2022/04/10 07:54:29;;;;;;;;;21.25;20.25;;;;;9.11;54.91;101772.84;5047027;28;45379;-65
2022/04/10 07:56:54;;;;;;;;;14.75;14.75;;;;;9.11;54.46;101756.84;5054776;28;45453;-65
2022/04/10 07:59:20;;;;;;;;;20.50;18.00;;;;;9.28;54.65;101775.31;5080855;27;47189;-64
2022/04/10 08:01:46;;;;;;;;;26.50;22.50;;;;;9.35;53.87;101771.69;5076435;27;45490;-65
2022/04/10 08:04:11;;;;;;;;;25.25;18.75;;;;;9.42;54.09;101772.50;5056661;28;45458;-65
2022/04/10 08:06:37;;;;;;;;;16.00;14.25;;;;;9.46;53.36;101763.59;5050497;28;45698;-65
2022/04/10 08:09:02;;;;;;;;;22.75;22.50;;;;;9.53;53.56;101775.06;5055929;28;45575;-65
2022/04/10 08:11:28;;;;;;;;;21.00;19.25;;;;;9.54;53.27;101772.38;5060967;28;45402;-65
2022/04/10 08:13:53;;;;;;;;;21.75;21.75;;;;;9.61;53.42;101771.38;5061709;28;45302;-65
2022/04/10 08:16:19;;;;;;;;;27.00;23.75;;;;;9.67;52.97;101772.22;5055911;28;45509;-65
2022/04/10 08:18:45;;;;;;;;;23.00;23.00;;;;;9.70;53.02;101774.84;5054889;28;48139;-65
2022/04/10 08:21:10;;;;;;;;;20.25;19.25;;;;;9.75;53.34;101773.00;5061453;28;45335;-65
2022/04/10 08:23:35;;;;;;;;;27.50;21.50;;;;;9.81;53.09;101760.47;5061162;28;45417;-64
2022/04/10 08:26:01;;;;;;;;;19.75;17.50;;;;;9.87;52.24;101767.50;5053022;28;45559;-64
2022/04/10 08:28:27;;;;;;;;;20.00;16.50;;;;;9.87;51.64;101763.97;5059740;28;47006;-65
2022/04/10 08:30:52;;;;;;;;;22.50;21.25;;;;;9.81;51.52;101771.16;5055298;28;45266;-65
2022/04/10 08:33:18;;;;;;;;;12.75;12.75;;;;;9.77;52.09;101758.78;5056317;28;45386;-65
2022/04/10 08:35:43;;;;;;;;;15.50;13.00;;;;;9.85;51.35;101765.78;5061269;28;45533;-65
2022/04/10 08:38:09;;;;;;;;;19.00;16.75;;;;;9.83;51.77;101758.66;5060815;28;45355;-64
2022/04/10 08:40:34;;;;;;;;;9.25;8.25;;;;;9.91;50.95;101771.03;5047179;28;45414;-63
2022/04/10 08:43:02;;;;;;;;;13.50;11.00;;;;;9.87;51.28;101758.63;5061048;28;45432;-66
2022/04/10 08:45:28;;;;;;;;;13.50;11.75;;;;;9.93;51.38;101764.75;5080187;27;45351;-65
2022/04/10 08:47:55;;;;;;;;;16.25;15.50;;;;;10.05;51.80;101770.84;5060754;28;45350;-66
2022/04/10 08:50:23;;;;;;;;;21.50;18.50;;;;;10.07;51.19;101774.38;5061006;28;45172;-65
2022/04/10 08:52:52;;;;;;;;;16.50;16.25;;;;;10.05;50.98;101768.19;5060744;28;45456;-64
2022/04/10 08:55:18;;;;;;;;;16.75;16.50;;;;;10.10;51.61;101771.66;5059641;28;45432;-64
2022/04/10 08:57:44;;;;;;;;;13.75;12.75;;;;;10.12;51.09;101768.09;5054311;28;46200;-64
2022/04/10 09:00:10;;;;;;;;;12.25;10.75;;;;;10.23;50.83;101775.06;5057399;28;45311;-64
2022/04/10 09:02:52;;;;;;;;;14.25;10.00;;;;;10.27;50.73;101768.75;5059545;28;45381;-63
2022/04/10 09:05:17;;;;;;;;;8.25;8.00;;;;;10.31;50.70;101774.03;5060501;28;45506;-65
2022/04/10 09:08:06;;;;;;;;;7.67;7.00;;;;;10.37;50.62;101765.97;5060184;28;45457;-63
2022/04/10 09:10:57;;;;;;;;;9.25;5.75;;;;;10.40;50.26;101764.16;5058588;28;45525;-63
2022/04/10 09:13:51;;;;;;;;;6.25;6.00;;;;;10.42;49.66;101765.00;5050805;28;45510;-62
2022/04/10 09:16:21;;;;;;;;;8.50;6.50;;;;;10.43;49.66;101766.78;5056809;28;45498;-65
2022/04/10 09:18:51;;;;;;;;;4.75;4.75;;;;;10.45;50.22;101760.50;5059695;28;46174;-66
2022/04/10 09:21:19;;;;;;;;;5.00;5.00;;;;;10.46;50.25;101753.38;5059858;28;45342;-65
2022/04/10 09:24:05;;;;;;;;;9.25;5.00;;;;;10.54;49.95;101762.13;5049987;28;45348;-65
2022/04/10 09:26:48;;;;;;;;;5.00;5.00;;;;;10.53;49.12;101757.72;5046701;28;45526;-66
2022/04/10 09:29:18;;;;;;;;;3.50;3.00;;;;;10.57;49.66;101772.75;5060225;28;46179;-66
2022/04/10 09:31:44;;;;;;;;;3.00;3.00;;;;;10.61;49.14;101761.16;5059630;28;45264;-65
2022/04/10 09:34:13;;;;;;;;;5.00;4.00;;;;;10.64;48.80;101758.44;5060281;28;45386;-66
2022/04/10 09:36:43;;;;;;;;;5.00;5.00;;;;;10.70;49.81;101755.63;5060198;28;45460;-65
2022/04/10 09:39:11;;;;;;;;;4.00;4.00;;;;;10.83;49.00;101764.34;5059839;28;46879;-66
2022/04/10 09:41:39;;;;;;;;;8.00;4.00;;;;;10.91;49.02;101765.09;5057115;28;45640;-65
2022/04/10 09:44:12;;;;;;;;;5.00;4.75;;;;;10.97;48.77;101765.88;5059786;28;45312;-66
2022/04/10 09:46:38;;;;;;;;;4.25;3.75;;;;;11.02;49.33;101767.56;5060095;28;45310;-66
2022/04/10 09:49:05;;;;;;;;;3.25;3.25;;;;;11.12;48.31;101765.59;5081021;27;48331;-66
2022/04/10 09:51:31;;;;;;;;;3.25;3.25;;;;;11.15;48.14;101764.69;5059184;28;45284;-66
2022/04/10 09:54:05;;;;;;;;;3.50;3.50;;;;;11.19;47.46;101764.56;5058762;28;45170;-66
2022/04/10 09:56:31;;;;;;;;;6.00;4.25;;;;;11.23;47.46;101766.28;5056443;28;45239;-66
2022/04/10 09:58:59;;;;;;;;;5.00;3.50;;;;;11.27;48.35;101764.44;5058740;28;45899;-66
2022/04/10 10:01:27;;;;;;;;;5.00;5.00;;;;;11.31;47.86;101767.03;5050783;28;45709;-66
2022/04/10 10:03:55;;;;;;;;;5.75;5.00;;;;;11.34;48.16;101760.72;5057647;28;45406;-65
2022/04/10 10:06:21;;;;;;;;;4.00;4.00;;;;;11.40;46.68;101763.28;5059458;28;45495;-66
2022/04/10 10:08:48;;;;;;;;;4.25;4.00;;;;;11.43;46.60;101751.66;5046654;28;45871;-66
2022/04/10 10:11:14;;;;;;;;;6.00;6.00;;;;;11.37;46.45;101755.31;5054111;28;45414;-65
2022/04/10 10:13:40;;;;;;;;;8.50;5.00;;;;;11.33;46.83;101750.97;5057038;28;45391;-66
2022/04/10 10:16:07;;;;;;;;;5.75;5.75;;;;;11.36;46.99;101740.22;5056909;28;45362;-66
2022/04/10 10:18:33;;;;;;;;;9.25;5.75;;;;;11.45;46.50;101744.50;5058620;28;45993;-66
2022/04/10 10:20:58;;;;;;;;;4.00;3.00;;;;;11.46;47.10;101746.22;5059731;28;45443;-64
2022/04/10 10:23:25;;;;;;;;;8.75;6.50;;;;;11.52;47.47;101743.44;5057871;28;45314;-64
2022/04/10 10:26:31;;;;;;;;;7.50;7.50;;;;;11.60;46.59;101746.84;5054151;28;45450;-64
2022/04/10 10:28:57;;;;;;;;;6.25;6.25;;;;;11.58;46.34;101740.66;5046294;28;46308;-64
2022/04/10 10:31:41;;;;;;;;;7.00;6.25;;;;;11.51;46.34;101720.31;5060431;28;45405;-64
2022/04/10 10:34:08;;;;;;;;;6.75;5.75;;;;;11.64;46.62;101732.53;5061834;28;45738;-64
2022/04/10 10:36:34;;;;;;;;;6.25;5.50;;;;;11.70;46.29;101720.78;5063040;28;45484;-64
2022/04/10 10:39:04;;;;;;;;;9.25;7.25;;;;;11.74;47.03;101722.47;5062436;28;46302;-64
2022/04/10 10:41:31;;;;;;;;;7.00;6.75;;;;;11.78;46.35;101718.84;5059816;28;46107;-64
2022/04/10 10:43:57;;;;;;;;;6.00;6.00;;;;;11.79;46.22;101719.72;5053950;28;45244;-64
2022/04/10 10:46:32;;;;;;;;;8.25;7.75;;;;;11.82;46.19;101714.28;5050705;28;45497;-64
2022/04/10 10:49:19;;;;;;;;;7.75;5.75;;;;;11.85;46.52;101720.47;5049328;28;46220;-64
2022/04/10 10:51:49;;;;;;;;;7.75;7.75;;;;;11.89;46.01;101717.72;5062930;28;45622;-64
2022/04/10 10:54:20;;;;;;;;;6.25;6.00;;;;;11.93;45.84;101714.97;5046003;28;45342;-64
2022/04/10 10:56:47;;;;;;;;;6.00;6.00;;;;;11.92;45.51;101701.63;5057585;28;45341;-64
2022/04/10 10:59:29;;;;;;;;;5.50;5.50;;;;;11.93;45.73;101698.03;5056725;28;47292;-63
2022/04/10 11:02:14;;;;;;;;;6.00;6.00;;;;;12.04;45.60;101712.94;5059692;28;45586;-64
2022/04/10 11:04:42;;;;;;;;;5.50;4.00;;;;;12.13;45.29;101708.25;5062990;28;45446;-64
2022/04/10 11:07:19;;;;;;;;;3.75;3.75;;;;;12.17;45.13;101700.13;5057761;28;47188;-64
2022/04/10 11:09:59;;;;;;;;;5.50;4.00;;;;;12.23;45.28;101694.66;5057470;28;46496;-64
2022/04/10 11:12:50;;;;;;;;;28.25;25.75;;;;;12.28;45.19;101689.19;5059520;28;45370;-64
2022/04/10 11:15:17;;;;;;;;;8.00;7.00;;;;;12.28;44.89;101685.59;5047064;28;46982;-65
2022/04/10 11:17:43;;;;;;;;;5.00;5.00;;;;;12.31;44.85;101686.44;5055955;28;45481;-65
2022/04/10 11:20:12;;;;;;;;;3.75;3.75;;;;;12.38;44.73;101680.00;5058872;28;45723;-64
2022/04/10 11:22:46;;;;;;;;;15.75;14.25;;;;;12.42;44.64;101675.44;5059312;28;45678;-65
2022/04/10 11:25:12;;;;;;;;;7.50;7.00;;;;;12.46;44.15;101682.47;5060298;28;45474;-65
2022/04/10 11:27:43;;;;;;;;;11.50;9.25;;;;;12.51;44.80;101677.91;5058388;28;45439;-66